sensor_id;sensor_type;location;lat;lon;timestamp;P1;durP1;ratioP1;P2;durP2;ratioP2
13425;SDS011;6785;57.918;12.530;2022-10-28T00:01:08;16.87;;;4.97;;
13425;SDS011;6785;57.918;12.530;2022-10-28T00:03:44;12.97;;;4.97;;
13425;SDS011;6785;57.918;12.530;2022-10-28T00:06:20;13.30;;;4.90;;
13425;SDS011;6785;57.918;12.530;2022-10-28T00:08:49;11.47;;;5.13;;
13425;SDS011;6785;57.918;12.530;2022-10-28T00:11:18;11.90;;;5.07;;
13425;SDS011;6785;57.918;12.530;2022-10-28T00:13:52;9.63;;;4.40;;
13425;SDS011;6785;57.918;12.530;2022-10-28T00:16:24;10.53;;;4.37;;
13425;SDS011;6785;57.918;12.530;2022-10-28T00:18:54;8.77;;;4.73;;
13425;SDS011;6785;57.918;12.530;2022-10-28T00:21:24;10.80;;;4.70;;
13425;SDS011;6785;57.918;12.530;2022-10-28T00:23:54;7.83;;;4.10;;
13425;SDS011;6785;57.918;12.530;2022-10-28T00:26:22;6.90;;;3.57;;
13425;SDS011;6785;57.918;12.530;2022-10-28T00:28:53;9.13;;;4.17;;
13425;SDS011;6785;57.918;12.530;2022-10-28T00:31:23;7.67;;;3.63;;
13425;SDS011;6785;57.918;12.530;2022-10-28T00:33:56;9.60;;;4.20;;
13425;SDS011;6785;57.918;12.530;2022-10-28T00:36:28;11.27;;;4.20;;
13425;SDS011;6785;57.918;12.530;2022-10-28T00:38:58;5.27;;;3.57;;
13425;SDS011;6785;57.918;12.530;2022-10-28T00:41:27;7.17;;;3.67;;
13425;SDS011;6785;57.918;12.530;2022-10-28T00:43:59;13.93;;;4.07;;
13425;SDS011;6785;57.918;12.530;2022-10-28T00:46:45;7.77;;;4.13;;
13425;SDS011;6785;57.918;12.530;2022-10-28T00:49:17;8.83;;;3.50;;
13425;SDS011;6785;57.918;12.530;2022-10-28T00:51:57;5.87;;;2.80;;
13425;SDS011;6785;57.918;12.530;2022-10-28T00:54:33;3.73;;;2.93;;
13425;SDS011;6785;57.918;12.530;2022-10-28T00:57:03;3.33;;;2.27;;
13425;SDS011;6785;57.918;12.530;2022-10-28T00:59:42;3.50;;;2.80;;
13425;SDS011;6785;57.918;12.530;2022-10-28T01:02:17;5.97;;;2.53;;
13425;SDS011;6785;57.918;12.530;2022-10-28T01:04:48;4.37;;;2.80;;
13425;SDS011;6785;57.918;12.530;2022-10-28T01:07:16;3.77;;;2.63;;
13425;SDS011;6785;57.918;12.530;2022-10-28T01:09:43;3.57;;;2.30;;
13425;SDS011;6785;57.918;12.530;2022-10-28T01:12:14;3.90;;;2.47;;
13425;SDS011;6785;57.918;12.530;2022-10-28T01:14:58;4.67;;;2.63;;
13425;SDS011;6785;57.918;12.530;2022-10-28T01:17:48;6.23;;;3.10;;
13425;SDS011;6785;57.918;12.530;2022-10-28T01:20:33;5.87;;;3.00;;
13425;SDS011;6785;57.918;12.530;2022-10-28T01:23:31;4.93;;;2.47;;
13425;SDS011;6785;57.918;12.530;2022-10-28T01:26:22;3.70;;;2.50;;
13425;SDS011;6785;57.918;12.530;2022-10-28T01:32:32;10.27;;;2.80;;
13425;SDS011;6785;57.918;12.530;2022-10-28T01:35:24;8.73;;;3.27;;
13425;SDS011;6785;57.918;12.530;2022-10-28T01:38:15;4.40;;;2.90;;
13425;SDS011;6785;57.918;12.530;2022-10-28T01:40:57;4.57;;;3.20;;
13425;SDS011;6785;57.918;12.530;2022-10-28T01:43:40;6.47;;;3.20;;
13425;SDS011;6785;57.918;12.530;2022-10-28T01:46:16;6.63;;;3.53;;
13425;SDS011;6785;57.918;12.530;2022-10-28T01:48:51;7.87;;;3.90;;
13425;SDS011;6785;57.918;12.530;2022-10-28T01:51:25;6.53;;;4.07;;
13425;SDS011;6785;57.918;12.530;2022-10-28T01:53:58;6.20;;;4.50;;
13425;SDS011;6785;57.918;12.530;2022-10-28T01:56:32;6.33;;;4.50;;
13425;SDS011;6785;57.918;12.530;2022-10-28T01:59:08;5.17;;;4.63;;
13425;SDS011;6785;57.918;12.530;2022-10-28T02:01:41;4.77;;;4.00;;
13425;SDS011;6785;57.918;12.530;2022-10-28T02:04:09;5.20;;;4.20;;
13425;SDS011;6785;57.918;12.530;2022-10-28T02:06:37;8.97;;;5.10;;
13425;SDS011;6785;57.918;12.530;2022-10-28T02:09:14;6.77;;;4.70;;
13425;SDS011;6785;57.918;12.530;2022-10-28T02:15:06;6.90;;;5.10;;
13425;SDS011;6785;57.918;12.530;2022-10-28T02:17:49;8.50;;;4.97;;
13425;SDS011;6785;57.918;12.530;2022-10-28T02:20:36;7.57;;;4.60;;
13425;SDS011;6785;57.918;12.530;2022-10-28T02:23:19;8.87;;;4.67;;
13425;SDS011;6785;57.918;12.530;2022-10-28T02:25:58;6.97;;;5.80;;
13425;SDS011;6785;57.918;12.530;2022-10-28T02:28:36;8.17;;;5.80;;
13425;SDS011;6785;57.918;12.530;2022-10-28T02:31:16;6.77;;;5.30;;
13425;SDS011;6785;57.918;12.530;2022-10-28T02:33:52;6.73;;;5.37;;
13425;SDS011;6785;57.918;12.530;2022-10-28T02:36:28;8.67;;;6.17;;
13425;SDS011;6785;57.918;12.530;2022-10-28T02:39:01;10.63;;;6.30;;
13425;SDS011;6785;57.918;12.530;2022-10-28T02:41:34;8.13;;;6.10;;
13425;SDS011;6785;57.918;12.530;2022-10-28T02:44:09;7.20;;;5.87;;
13425;SDS011;6785;57.918;12.530;2022-10-28T02:46:42;13.90;;;6.47;;
13425;SDS011;6785;57.918;12.530;2022-10-28T02:49:15;12.73;;;6.87;;
13425;SDS011;6785;57.918;12.530;2022-10-28T02:51:45;12.13;;;7.47;;
13425;SDS011;6785;57.918;12.530;2022-10-28T02:54:23;10.03;;;8.03;;
13425;SDS011;6785;57.918;12.530;2022-10-28T02:57:03;10.83;;;8.30;;
13425;SDS011;6785;57.918;12.530;2022-10-28T02:59:39;18.40;;;9.43;;
13425;SDS011;6785;57.918;12.530;2022-10-28T03:02:06;17.27;;;9.43;;
13425;SDS011;6785;57.918;12.530;2022-10-28T03:04:34;20.40;;;9.13;;
13425;SDS011;6785;57.918;12.530;2022-10-28T03:07:02;13.50;;;9.17;;
13425;SDS011;6785;57.918;12.530;2022-10-28T03:09:29;15.73;;;9.80;;
13425;SDS011;6785;57.918;12.530;2022-10-28T03:11:56;14.37;;;9.90;;
13425;SDS011;6785;57.918;12.530;2022-10-28T03:14:23;17.33;;;11.03;;
13425;SDS011;6785;57.918;12.530;2022-10-28T03:16:50;17.80;;;11.73;;
13425;SDS011;6785;57.918;12.530;2022-10-28T03:19:17;19.20;;;11.73;;
13425;SDS011;6785;57.918;12.530;2022-10-28T03:21:44;24.83;;;12.53;;
13425;SDS011;6785;57.918;12.530;2022-10-28T03:24:12;20.87;;;14.53;;
13425;SDS011;6785;57.918;12.530;2022-10-28T03:26:39;23.17;;;13.97;;
13425;SDS011;6785;57.918;12.530;2022-10-28T03:29:07;24.20;;;14.63;;
13425;SDS011;6785;57.918;12.530;2022-10-28T03:31:34;25.50;;;14.43;;
13425;SDS011;6785;57.918;12.530;2022-10-28T03:34:01;26.13;;;15.60;;
13425;SDS011;6785;57.918;12.530;2022-10-28T03:36:28;25.47;;;15.57;;
13425;SDS011;6785;57.918;12.530;2022-10-28T03:38:55;29.37;;;16.73;;
13425;SDS011;6785;57.918;12.530;2022-10-28T03:41:23;33.03;;;16.30;;
13425;SDS011;6785;57.918;12.530;2022-10-28T03:43:50;25.63;;;17.23;;
13425;SDS011;6785;57.918;12.530;2022-10-28T03:46:17;25.77;;;16.73;;
13425;SDS011;6785;57.918;12.530;2022-10-28T03:48:44;26.37;;;17.27;;
13425;SDS011;6785;57.918;12.530;2022-10-28T03:51:11;24.03;;;16.73;;
13425;SDS011;6785;57.918;12.530;2022-10-28T03:53:38;25.10;;;17.37;;
13425;SDS011;6785;57.918;12.530;2022-10-28T03:56:05;26.50;;;17.87;;
13425;SDS011;6785;57.918;12.530;2022-10-28T03:58:34;31.03;;;18.77;;
13425;SDS011;6785;57.918;12.530;2022-10-28T04:01:01;35.97;;;18.90;;
13425;SDS011;6785;57.918;12.530;2022-10-28T04:03:28;33.60;;;20.67;;
13425;SDS011;6785;57.918;12.530;2022-10-28T04:05:55;40.10;;;20.63;;
13425;SDS011;6785;57.918;12.530;2022-10-28T04:08:22;34.53;;;20.33;;
13425;SDS011;6785;57.918;12.530;2022-10-28T04:10:49;32.83;;;20.23;;
13425;SDS011;6785;57.918;12.530;2022-10-28T04:13:16;35.93;;;22.03;;
13425;SDS011;6785;57.918;12.530;2022-10-28T04:15:45;34.53;;;20.60;;
13425;SDS011;6785;57.918;12.530;2022-10-28T04:18:12;37.73;;;21.13;;
13425;SDS011;6785;57.918;12.530;2022-10-28T04:20:39;31.07;;;21.77;;
13425;SDS011;6785;57.918;12.530;2022-10-28T04:23:07;28.40;;;20.37;;
13425;SDS011;6785;57.918;12.530;2022-10-28T04:25:39;32.13;;;20.23;;
13425;SDS011;6785;57.918;12.530;2022-10-28T04:28:06;37.00;;;20.70;;
13425;SDS011;6785;57.918;12.530;2022-10-28T04:30:33;30.80;;;20.80;;
13425;SDS011;6785;57.918;12.530;2022-10-28T04:33:01;36.17;;;20.77;;
13425;SDS011;6785;57.918;12.530;2022-10-28T04:35:28;32.60;;;19.37;;
13425;SDS011;6785;57.918;12.530;2022-10-28T04:37:55;26.93;;;18.77;;
13425;SDS011;6785;57.918;12.530;2022-10-28T04:40:22;29.57;;;18.57;;
13425;SDS011;6785;57.918;12.530;2022-10-28T04:42:49;32.47;;;18.67;;
13425;SDS011;6785;57.918;12.530;2022-10-28T04:45:16;30.33;;;16.67;;
13425;SDS011;6785;57.918;12.530;2022-10-28T04:47:43;25.30;;;16.80;;
13425;SDS011;6785;57.918;12.530;2022-10-28T04:50:12;23.87;;;16.00;;
13425;SDS011;6785;57.918;12.530;2022-10-28T04:52:39;21.93;;;16.13;;
13425;SDS011;6785;57.918;12.530;2022-10-28T04:55:06;23.43;;;14.93;;
13425;SDS011;6785;57.918;12.530;2022-10-28T04:57:34;24.47;;;15.00;;
13425;SDS011;6785;57.918;12.530;2022-10-28T05:00:01;20.87;;;14.07;;
13425;SDS011;6785;57.918;12.530;2022-10-28T05:02:29;21.43;;;14.43;;
13425;SDS011;6785;57.918;12.530;2022-10-28T05:04:56;18.70;;;13.67;;
13425;SDS011;6785;57.918;12.530;2022-10-28T05:07:28;19.27;;;12.77;;
13425;SDS011;6785;57.918;12.530;2022-10-28T05:09:55;16.03;;;12.73;;
13425;SDS011;6785;57.918;12.530;2022-10-28T05:12:22;18.43;;;12.33;;
13425;SDS011;6785;57.918;12.530;2022-10-28T05:14:49;18.30;;;12.90;;
13425;SDS011;6785;57.918;12.530;2022-10-28T05:17:16;18.67;;;13.30;;
13425;SDS011;6785;57.918;12.530;2022-10-28T05:19:43;25.03;;;14.43;;
13425;SDS011;6785;57.918;12.530;2022-10-28T05:22:10;19.03;;;13.67;;
13425;SDS011;6785;57.918;12.530;2022-10-28T05:24:38;22.50;;;14.03;;
13425;SDS011;6785;57.918;12.530;2022-10-28T05:27:05;22.07;;;14.23;;
13425;SDS011;6785;57.918;12.530;2022-10-28T05:29:32;29.17;;;16.40;;
13425;SDS011;6785;57.918;12.530;2022-10-28T05:31:59;24.70;;;15.77;;
13425;SDS011;6785;57.918;12.530;2022-10-28T05:34:26;24.37;;;16.43;;
13425;SDS011;6785;57.918;12.530;2022-10-28T05:36:53;30.63;;;18.30;;
13425;SDS011;6785;57.918;12.530;2022-10-28T05:39:20;28.63;;;18.23;;
13425;SDS011;6785;57.918;12.530;2022-10-28T05:41:49;29.90;;;19.30;;
13425;SDS011;6785;57.918;12.530;2022-10-28T05:44:16;34.67;;;20.97;;
13425;SDS011;6785;57.918;12.530;2022-10-28T05:46:43;43.50;;;21.50;;
13425;SDS011;6785;57.918;12.530;2022-10-28T05:49:09;36.23;;;20.87;;
13425;SDS011;6785;57.918;12.530;2022-10-28T05:51:36;34.90;;;21.37;;
13425;SDS011;6785;57.918;12.530;2022-10-28T05:54:04;33.23;;;20.10;;
13425;SDS011;6785;57.918;12.530;2022-10-28T05:56:31;33.00;;;19.90;;
13425;SDS011;6785;57.918;12.530;2022-10-28T05:58:59;31.70;;;18.93;;
13425;SDS011;6785;57.918;12.530;2022-10-28T06:01:26;33.90;;;19.60;;
13425;SDS011;6785;57.918;12.530;2022-10-28T06:03:53;36.90;;;20.20;;
13425;SDS011;6785;57.918;12.530;2022-10-28T06:06:20;41.67;;;21.93;;
13425;SDS011;6785;57.918;12.530;2022-10-28T06:08:47;40.83;;;20.13;;
13425;SDS011;6785;57.918;12.530;2022-10-28T06:11:14;38.93;;;21.10;;
13425;SDS011;6785;57.918;12.530;2022-10-28T06:13:41;42.73;;;22.00;;
13425;SDS011;6785;57.918;12.530;2022-10-28T06:16:09;38.77;;;21.20;;
13425;SDS011;6785;57.918;12.530;2022-10-28T06:18:36;45.47;;;20.87;;
13425;SDS011;6785;57.918;12.530;2022-10-28T06:21:04;39.40;;;20.73;;
13425;SDS011;6785;57.918;12.530;2022-10-28T06:23:31;34.87;;;19.50;;
13425;SDS011;6785;57.918;12.530;2022-10-28T06:25:59;35.53;;;18.80;;
13425;SDS011;6785;57.918;12.530;2022-10-28T06:28:28;33.20;;;17.93;;
13425;SDS011;6785;57.918;12.530;2022-10-28T06:31:00;33.37;;;17.53;;
13425;SDS011;6785;57.918;12.530;2022-10-28T06:33:29;28.47;;;16.67;;
13425;SDS011;6785;57.918;12.530;2022-10-28T06:35:57;27.77;;;16.17;;
13425;SDS011;6785;57.918;12.530;2022-10-28T06:38:25;28.87;;;16.33;;
13425;SDS011;6785;57.918;12.530;2022-10-28T06:40:53;29.90;;;16.53;;
13425;SDS011;6785;57.918;12.530;2022-10-28T06:43:23;26.37;;;15.67;;
13425;SDS011;6785;57.918;12.530;2022-10-28T06:45:50;25.30;;;15.23;;
13425;SDS011;6785;57.918;12.530;2022-10-28T06:48:21;19.90;;;14.30;;
13425;SDS011;6785;57.918;12.530;2022-10-28T06:50:49;22.20;;;13.40;;
13425;SDS011;6785;57.918;12.530;2022-10-28T06:53:16;21.77;;;13.70;;
13425;SDS011;6785;57.918;12.530;2022-10-28T06:55:43;18.77;;;11.30;;
13425;SDS011;6785;57.918;12.530;2022-10-28T06:58:18;18.33;;;11.43;;
13425;SDS011;6785;57.918;12.530;2022-10-28T07:00:45;17.87;;;10.70;;
13425;SDS011;6785;57.918;12.530;2022-10-28T07:03:12;16.80;;;10.20;;
13425;SDS011;6785;57.918;12.530;2022-10-28T07:05:39;15.10;;;10.13;;
13425;SDS011;6785;57.918;12.530;2022-10-28T07:08:07;14.27;;;9.07;;
13425;SDS011;6785;57.918;12.530;2022-10-28T07:10:34;13.03;;;9.00;;
13425;SDS011;6785;57.918;12.530;2022-10-28T07:13:02;15.10;;;8.70;;
13425;SDS011;6785;57.918;12.530;2022-10-28T07:15:29;19.73;;;9.67;;
13425;SDS011;6785;57.918;12.530;2022-10-28T07:17:57;15.27;;;9.30;;
13425;SDS011;6785;57.918;12.530;2022-10-28T07:20:26;14.10;;;9.37;;
13425;SDS011;6785;57.918;12.530;2022-10-28T07:22:56;15.43;;;9.23;;
13425;SDS011;6785;57.918;12.530;2022-10-28T07:25:25;14.63;;;7.73;;
13425;SDS011;6785;57.918;12.530;2022-10-28T07:27:55;11.77;;;7.53;;
13425;SDS011;6785;57.918;12.530;2022-10-28T07:30:23;12.37;;;7.57;;
13425;SDS011;6785;57.918;12.530;2022-10-28T07:32:50;11.23;;;7.60;;
13425;SDS011;6785;57.918;12.530;2022-10-28T07:35:17;11.33;;;7.30;;
13425;SDS011;6785;57.918;12.530;2022-10-28T07:37:45;14.73;;;7.60;;
13425;SDS011;6785;57.918;12.530;2022-10-28T07:40:12;10.27;;;7.20;;
13425;SDS011;6785;57.918;12.530;2022-10-28T07:42:41;8.97;;;5.90;;
13425;SDS011;6785;57.918;12.530;2022-10-28T07:45:08;13.43;;;6.27;;
13425;SDS011;6785;57.918;12.530;2022-10-28T07:47:35;12.17;;;6.07;;
13425;SDS011;6785;57.918;12.530;2022-10-28T07:50:02;14.20;;;6.17;;
13425;SDS011;6785;57.918;12.530;2022-10-28T07:52:32;10.23;;;5.40;;
13425;SDS011;6785;57.918;12.530;2022-10-28T07:55:00;7.53;;;5.10;;
13425;SDS011;6785;57.918;12.530;2022-10-28T07:57:27;8.23;;;4.80;;
13425;SDS011;6785;57.918;12.530;2022-10-28T07:59:56;8.63;;;5.10;;
13425;SDS011;6785;57.918;12.530;2022-10-28T08:02:23;6.90;;;4.80;;
13425;SDS011;6785;57.918;12.530;2022-10-28T08:04:51;8.60;;;4.90;;
13425;SDS011;6785;57.918;12.530;2022-10-28T08:07:20;8.60;;;5.00;;
13425;SDS011;6785;57.918;12.530;2022-10-28T08:09:48;7.63;;;5.50;;
13425;SDS011;6785;57.918;12.530;2022-10-28T08:12:16;8.13;;;5.77;;
13425;SDS011;6785;57.918;12.530;2022-10-28T08:14:44;9.93;;;6.00;;
13425;SDS011;6785;57.918;12.530;2022-10-28T08:17:12;12.00;;;6.70;;
13425;SDS011;6785;57.918;12.530;2022-10-28T08:19:39;13.13;;;7.10;;
13425;SDS011;6785;57.918;12.530;2022-10-28T08:22:07;13.80;;;7.03;;
13425;SDS011;6785;57.918;12.530;2022-10-28T08:24:34;23.17;;;9.33;;
13425;SDS011;6785;57.918;12.530;2022-10-28T08:27:01;24.60;;;10.20;;
13425;SDS011;6785;57.918;12.530;2022-10-28T08:29:29;25.70;;;11.50;;
13425;SDS011;6785;57.918;12.530;2022-10-28T08:31:56;23.30;;;11.37;;
13425;SDS011;6785;57.918;12.530;2022-10-28T08:34:24;28.90;;;12.63;;
13425;SDS011;6785;57.918;12.530;2022-10-28T08:36:53;28.20;;;12.03;;
13425;SDS011;6785;57.918;12.530;2022-10-28T08:39:20;29.03;;;11.53;;
13425;SDS011;6785;57.918;12.530;2022-10-28T08:41:48;27.13;;;12.03;;
13425;SDS011;6785;57.918;12.530;2022-10-28T08:44:31;22.93;;;11.60;;
13425;SDS011;6785;57.918;12.530;2022-10-28T08:47:27;26.53;;;12.83;;
13425;SDS011;6785;57.918;12.530;2022-10-28T08:50:15;28.53;;;12.73;;
13425;SDS011;6785;57.918;12.530;2022-10-28T08:52:47;23.97;;;11.67;;
13425;SDS011;6785;57.918;12.530;2022-10-28T08:55:20;21.27;;;11.40;;
13425;SDS011;6785;57.918;12.530;2022-10-28T08:57:55;30.83;;;12.43;;
13425;SDS011;6785;57.918;12.530;2022-10-28T09:00:28;24.53;;;11.33;;
13425;SDS011;6785;57.918;12.530;2022-10-28T09:03:12;26.13;;;11.13;;
13425;SDS011;6785;57.918;12.530;2022-10-28T09:05:46;34.67;;;12.20;;
13425;SDS011;6785;57.918;12.530;2022-10-28T09:08:20;30.37;;;11.77;;
13425;SDS011;6785;57.918;12.530;2022-10-28T09:10:52;39.17;;;12.30;;
13425;SDS011;6785;57.918;12.530;2022-10-28T09:13:44;20.47;;;10.67;;
13425;SDS011;6785;57.918;12.530;2022-10-28T09:16:31;22.40;;;11.17;;
13425;SDS011;6785;57.918;12.530;2022-10-28T09:19:13;40.90;;;12.43;;
13425;SDS011;6785;57.918;12.530;2022-10-28T09:22:02;22.47;;;11.00;;
13425;SDS011;6785;57.918;12.530;2022-10-28T09:24:47;23.70;;;10.10;;
13425;SDS011;6785;57.918;12.530;2022-10-28T09:27:38;28.60;;;11.23;;
13425;SDS011;6785;57.918;12.530;2022-10-28T09:30:27;19.50;;;9.70;;
13425;SDS011;6785;57.918;12.530;2022-10-28T09:33:09;22.57;;;9.27;;
13425;SDS011;6785;57.918;12.530;2022-10-28T09:36:07;20.73;;;8.40;;
13425;SDS011;6785;57.918;12.530;2022-10-28T09:38:41;21.10;;;9.00;;
13425;SDS011;6785;57.918;12.530;2022-10-28T09:41:10;18.30;;;8.37;;
13425;SDS011;6785;57.918;12.530;2022-10-28T09:43:44;20.03;;;8.80;;
13425;SDS011;6785;57.918;12.530;2022-10-28T09:46:15;19.13;;;9.10;;
13425;SDS011;6785;57.918;12.530;2022-10-28T09:48:44;19.73;;;8.90;;
13425;SDS011;6785;57.918;12.530;2022-10-28T09:51:16;17.27;;;8.10;;
13425;SDS011;6785;57.918;12.530;2022-10-28T09:53:57;23.23;;;9.03;;
13425;SDS011;6785;57.918;12.530;2022-10-28T09:56:27;17.07;;;7.63;;
13425;SDS011;6785;57.918;12.530;2022-10-28T09:58:56;19.07;;;7.60;;
13425;SDS011;6785;57.918;12.530;2022-10-28T10:01:27;17.43;;;6.87;;
13425;SDS011;6785;57.918;12.530;2022-10-28T10:03:58;21.53;;;7.87;;
13425;SDS011;6785;57.918;12.530;2022-10-28T10:06:27;13.70;;;6.97;;
13425;SDS011;6785;57.918;12.530;2022-10-28T10:09:04;13.70;;;6.60;;
13425;SDS011;6785;57.918;12.530;2022-10-28T10:11:40;13.47;;;5.73;;
13425;SDS011;6785;57.918;12.530;2022-10-28T10:14:14;11.03;;;5.40;;
13425;SDS011;6785;57.918;12.530;2022-10-28T10:16:51;13.97;;;5.50;;
13425;SDS011;6785;57.918;12.530;2022-10-28T10:19:22;10.33;;;5.03;;
13425;SDS011;6785;57.918;12.530;2022-10-28T10:21:50;15.93;;;5.87;;
13425;SDS011;6785;57.918;12.530;2022-10-28T10:24:29;8.57;;;5.63;;
13425;SDS011;6785;57.918;12.530;2022-10-28T10:26:59;9.17;;;5.07;;
13425;SDS011;6785;57.918;12.530;2022-10-28T10:29:28;10.47;;;4.83;;
13425;SDS011;6785;57.918;12.530;2022-10-28T10:32:04;12.53;;;5.00;;
13425;SDS011;6785;57.918;12.530;2022-10-28T10:34:42;7.23;;;4.13;;
13425;SDS011;6785;57.918;12.530;2022-10-28T10:37:16;11.00;;;4.40;;
13425;SDS011;6785;57.918;12.530;2022-10-28T10:39:58;11.17;;;4.10;;
13425;SDS011;6785;57.918;12.530;2022-10-28T10:42:30;8.03;;;3.77;;
13425;SDS011;6785;57.918;12.530;2022-10-28T10:44:58;5.93;;;3.50;;
13425;SDS011;6785;57.918;12.530;2022-10-28T10:47:33;8.50;;;4.23;;
13425;SDS011;6785;57.918;12.530;2022-10-28T10:50:20;8.83;;;4.13;;
13425;SDS011;6785;57.918;12.530;2022-10-28T10:52:53;10.50;;;4.90;;
13425;SDS011;6785;57.918;12.530;2022-10-28T10:55:26;7.40;;;4.10;;
13425;SDS011;6785;57.918;12.530;2022-10-28T10:57:59;6.73;;;4.70;;
13425;SDS011;6785;57.918;12.530;2022-10-28T11:00:29;8.40;;;4.90;;
13425;SDS011;6785;57.918;12.530;2022-10-28T11:03:01;8.63;;;4.90;;
13425;SDS011;6785;57.918;12.530;2022-10-28T11:05:32;12.50;;;5.23;;
13425;SDS011;6785;57.918;12.530;2022-10-28T11:07:59;7.63;;;4.37;;
13425;SDS011;6785;57.918;12.530;2022-10-28T11:10:31;9.07;;;4.90;;
13425;SDS011;6785;57.918;12.530;2022-10-28T11:13:02;7.50;;;4.50;;
13425;SDS011;6785;57.918;12.530;2022-10-28T11:15:57;5.80;;;3.40;;
13425;SDS011;6785;57.918;12.530;2022-10-28T11:18:26;11.00;;;4.40;;
13425;SDS011;6785;57.918;12.530;2022-10-28T11:20:57;8.63;;;4.20;;
13425;SDS011;6785;57.918;12.530;2022-10-28T11:23:37;7.47;;;3.47;;
13425;SDS011;6785;57.918;12.530;2022-10-28T11:26:16;5.23;;;3.60;;
13425;SDS011;6785;57.918;12.530;2022-10-28T11:29:00;3.30;;;3.00;;
13425;SDS011;6785;57.918;12.530;2022-10-28T11:31:39;5.57;;;2.90;;
13425;SDS011;6785;57.918;12.530;2022-10-28T11:34:29;8.10;;;2.60;;
13425;SDS011;6785;57.918;12.530;2022-10-28T11:37:23;9.23;;;3.03;;
13425;SDS011;6785;57.918;12.530;2022-10-28T11:40:09;6.13;;;3.47;;
13425;SDS011;6785;57.918;12.530;2022-10-28T11:42:58;7.73;;;3.73;;
13425;SDS011;6785;57.918;12.530;2022-10-28T11:45:42;4.80;;;3.13;;
13425;SDS011;6785;57.918;12.530;2022-10-28T11:48:21;6.87;;;3.43;;
13425;SDS011;6785;57.918;12.530;2022-10-28T11:51:11;4.23;;;2.93;;
13425;SDS011;6785;57.918;12.530;2022-10-28T11:54:05;5.77;;;3.30;;
13425;SDS011;6785;57.918;12.530;2022-10-28T11:56:52;5.70;;;3.07;;
13425;SDS011;6785;57.918;12.530;2022-10-28T11:59:37;8.70;;;2.97;;
13425;SDS011;6785;57.918;12.530;2022-10-28T12:02:37;7.47;;;3.20;;
13425;SDS011;6785;57.918;12.530;2022-10-28T12:05:24;8.47;;;3.27;;
13425;SDS011;6785;57.918;12.530;2022-10-28T12:11:07;7.73;;;3.60;;
13425;SDS011;6785;57.918;12.530;2022-10-28T12:13:47;4.60;;;3.30;;
13425;SDS011;6785;57.918;12.530;2022-10-28T12:16:29;5.00;;;3.10;;
13425;SDS011;6785;57.918;12.530;2022-10-28T12:19:04;5.10;;;3.23;;
13425;SDS011;6785;57.918;12.530;2022-10-28T12:21:40;6.47;;;3.23;;
13425;SDS011;6785;57.918;12.530;2022-10-28T12:24:14;5.10;;;3.33;;
13425;SDS011;6785;57.918;12.530;2022-10-28T12:26:46;8.43;;;3.20;;
13425;SDS011;6785;57.918;12.530;2022-10-28T12:29:20;4.57;;;2.90;;
13425;SDS011;6785;57.918;12.530;2022-10-28T12:31:54;5.50;;;3.00;;
13425;SDS011;6785;57.918;12.530;2022-10-28T12:34:29;7.40;;;3.07;;
13425;SDS011;6785;57.918;12.530;2022-10-28T12:37:03;8.30;;;3.37;;
13425;SDS011;6785;57.918;12.530;2022-10-28T12:39:37;8.10;;;2.80;;
13425;SDS011;6785;57.918;12.530;2022-10-28T12:42:15;3.37;;;2.67;;
13425;SDS011;6785;57.918;12.530;2022-10-28T12:44:50;3.33;;;2.63;;
13425;SDS011;6785;57.918;12.530;2022-10-28T12:47:26;8.83;;;3.30;;
13425;SDS011;6785;57.918;12.530;2022-10-28T12:50:08;6.27;;;3.00;;
13425;SDS011;6785;57.918;12.530;2022-10-28T12:52:46;5.03;;;3.43;;
13425;SDS011;6785;57.918;12.530;2022-10-28T12:55:40;8.83;;;4.07;;
13425;SDS011;6785;57.918;12.530;2022-10-28T12:58:16;3.57;;;2.83;;
13425;SDS011;6785;57.918;12.530;2022-10-28T13:00:52;4.00;;;2.50;;
13425;SDS011;6785;57.918;12.530;2022-10-28T13:03:26;5.27;;;2.70;;
13425;SDS011;6785;57.918;12.530;2022-10-28T13:05:55;3.70;;;2.50;;
13425;SDS011;6785;57.918;12.530;2022-10-28T13:08:57;6.00;;;2.87;;
13425;SDS011;6785;57.918;12.530;2022-10-28T13:12:05;2.40;;;2.20;;
13425;SDS011;6785;57.918;12.530;2022-10-28T13:18:11;4.80;;;2.17;;
13425;SDS011;6785;57.918;12.530;2022-10-28T13:21:04;3.60;;;2.87;;
13425;SDS011;6785;57.918;12.530;2022-10-28T13:23:48;5.63;;;3.37;;
13425;SDS011;6785;57.918;12.530;2022-10-28T13:26:24;5.50;;;3.67;;
13425;SDS011;6785;57.918;12.530;2022-10-28T13:28:55;6.30;;;3.70;;
13425;SDS011;6785;57.918;12.530;2022-10-28T13:31:34;4.73;;;3.07;;
13425;SDS011;6785;57.918;12.530;2022-10-28T13:34:05;6.17;;;3.23;;
13425;SDS011;6785;57.918;12.530;2022-10-28T13:36:35;6.13;;;3.13;;
13425;SDS011;6785;57.918;12.530;2022-10-28T13:39:20;3.70;;;3.13;;
13425;SDS011;6785;57.918;12.530;2022-10-28T13:51:27;4.13;;;2.93;;
13425;SDS011;6785;57.918;12.530;2022-10-28T13:54:21;4.17;;;3.00;;
13425;SDS011;6785;57.918;12.530;2022-10-28T13:56:51;12.07;;;3.10;;
13425;SDS011;6785;57.918;12.530;2022-10-28T13:59:22;3.20;;;2.53;;
13425;SDS011;6785;57.918;12.530;2022-10-28T14:01:55;4.13;;;2.60;;
13425;SDS011;6785;57.918;12.530;2022-10-28T14:04:28;7.80;;;2.70;;
13425;SDS011;6785;57.918;12.530;2022-10-28T14:07:02;2.67;;;2.20;;
13425;SDS011;6785;57.918;12.530;2022-10-28T14:09:47;3.33;;;2.47;;
13425;SDS011;6785;57.918;12.530;2022-10-28T14:12:21;3.60;;;2.10;;
13425;SDS011;6785;57.918;12.530;2022-10-28T14:15:02;2.60;;;2.40;;
13425;SDS011;6785;57.918;12.530;2022-10-28T14:17:44;7.50;;;2.70;;
13425;SDS011;6785;57.918;12.530;2022-10-28T14:20:21;4.63;;;2.40;;
13425;SDS011;6785;57.918;12.530;2022-10-28T14:23:01;2.50;;;2.30;;
13425;SDS011;6785;57.918;12.530;2022-10-28T14:26:28;3.83;;;2.23;;
13425;SDS011;6785;57.918;12.530;2022-10-28T14:28:55;9.53;;;2.73;;
13425;SDS011;6785;57.918;12.530;2022-10-28T14:31:41;4.40;;;2.10;;
13425;SDS011;6785;57.918;12.530;2022-10-28T14:37:14;6.40;;;2.50;;
13425;SDS011;6785;57.918;12.530;2022-10-28T14:40:27;3.67;;;2.63;;
13425;SDS011;6785;57.918;12.530;2022-10-28T14:43:14;4.10;;;2.60;;
13425;SDS011;6785;57.918;12.530;2022-10-28T14:46:02;3.07;;;2.53;;
13425;SDS011;6785;57.918;12.530;2022-10-28T14:48:50;5.50;;;2.90;;
13425;SDS011;6785;57.918;12.530;2022-10-28T14:51:21;6.63;;;3.13;;
13425;SDS011;6785;57.918;12.530;2022-10-28T14:53:52;8.40;;;3.57;;
13425;SDS011;6785;57.918;12.530;2022-10-28T14:56:25;11.00;;;3.73;;
13425;SDS011;6785;57.918;12.530;2022-10-28T14:58:56;4.63;;;3.43;;
13425;SDS011;6785;57.918;12.530;2022-10-28T15:01:49;7.87;;;4.00;;
13425;SDS011;6785;57.918;12.530;2022-10-28T15:04:37;5.47;;;3.37;;
13425;SDS011;6785;57.918;12.530;2022-10-28T15:07:07;7.43;;;4.80;;
13425;SDS011;6785;57.918;12.530;2022-10-28T15:09:39;5.83;;;4.33;;
13425;SDS011;6785;57.918;12.530;2022-10-28T15:12:10;5.13;;;4.30;;
13425;SDS011;6785;57.918;12.530;2022-10-28T15:14:41;10.17;;;4.57;;
13425;SDS011;6785;57.918;12.530;2022-10-28T15:17:14;11.03;;;4.63;;
13425;SDS011;6785;57.918;12.530;2022-10-28T15:19:44;9.97;;;5.20;;
13425;SDS011;6785;57.918;12.530;2022-10-28T15:22:14;7.13;;;4.83;;
13425;SDS011;6785;57.918;12.530;2022-10-28T15:24:52;6.53;;;5.67;;
13425;SDS011;6785;57.918;12.530;2022-10-28T15:27:22;12.70;;;5.50;;
13425;SDS011;6785;57.918;12.530;2022-10-28T15:29:52;12.87;;;5.90;;
13425;SDS011;6785;57.918;12.530;2022-10-28T15:32:26;11.30;;;6.23;;
13425;SDS011;6785;57.918;12.530;2022-10-28T15:34:56;10.67;;;6.40;;
13425;SDS011;6785;57.918;12.530;2022-10-28T15:37:25;8.50;;;6.67;;
13425;SDS011;6785;57.918;12.530;2022-10-28T15:40:09;12.30;;;6.80;;